sensor_id;sensor_type;location;lat;lon;timestamp;temperature;humidity
35491;DHT22;21605;52.068;20.806;2023-02-10T00:01:28;0.20;92.10
35491;DHT22;21605;52.068;20.806;2023-02-10T00:03:55;0.10;92.00
35491;DHT22;21605;52.068;20.806;2023-02-10T00:06:27;0.10;92.10
35491;DHT22;21605;52.068;20.806;2023-02-10T00:08:56;0.10;92.10
35491;DHT22;21605;52.068;20.806;2023-02-10T00:11:28;0.10;92.10
35491;DHT22;21605;52.068;20.806;2023-02-10T00:14:14;0.30;92.20
35491;DHT22;21605;52.068;20.806;2023-02-10T00:16:39;0.10;92.20
35491;DHT22;21605;52.068;20.806;2023-02-10T00:19:05;0.10;92.30
35491;DHT22;21605;52.068;20.806;2023-02-10T00:21:33;0.10;92.20
35491;DHT22;21605;52.068;20.806;2023-02-10T00:23:59;0.20;92.20
35491;DHT22;21605;52.068;20.806;2023-02-10T00:26:31;0.20;92.10
35491;DHT22;21605;52.068;20.806;2023-02-10T00:28:57;0.20;92.40
35491;DHT22;21605;52.068;20.806;2023-02-10T00:31:25;0.20;92.10
35491;DHT22;21605;52.068;20.806;2023-02-10T00:33:51;0.30;92.10
35491;DHT22;21605;52.068;20.806;2023-02-10T00:36:17;0.30;92.10
35491;DHT22;21605;52.068;20.806;2023-02-10T00:38:43;0.20;92.20
35491;DHT22;21605;52.068;20.806;2023-02-10T00:41:14;0.20;92.30
35491;DHT22;21605;52.068;20.806;2023-02-10T00:43:40;0.10;92.70
35491;DHT22;21605;52.068;20.806;2023-02-10T00:46:08;0.20;92.40
35491;DHT22;21605;52.068;20.806;2023-02-10T00:48:34;0.20;92.30
35491;DHT22;21605;52.068;20.806;2023-02-10T00:51:00;0.30;92.10
35491;DHT22;21605;52.068;20.806;2023-02-10T00:53:31;1.30;92.50
35491;DHT22;21605;52.068;20.806;2023-02-10T00:55:57;0.20;92.40
35491;DHT22;21605;52.068;20.806;2023-02-10T00:58:26;0.20;92.40
35491;DHT22;21605;52.068;20.806;2023-02-10T01:00:53;0.20;92.30
35491;DHT22;21605;52.068;20.806;2023-02-10T01:03:19;0.20;92.40
35491;DHT22;21605;52.068;20.806;2023-02-10T01:05:45;0.80;92.70
35491;DHT22;21605;52.068;20.806;2023-02-10T01:08:12;0.20;92.50
35491;DHT22;21605;52.068;20.806;2023-02-10T01:10:38;0.20;92.30
35491;DHT22;21605;52.068;20.806;2023-02-10T01:13:05;0.20;92.20
35491;DHT22;21605;52.068;20.806;2023-02-10T01:15:31;0.10;92.30
35491;DHT22;21605;52.068;20.806;2023-02-10T01:17:56;0.20;92.40
35491;DHT22;21605;52.068;20.806;2023-02-10T01:20:38;0.10;92.40
35491;DHT22;21605;52.068;20.806;2023-02-10T01:23:04;0.00;92.60
35491;DHT22;21605;52.068;20.806;2023-02-10T01:25:30;0.10;92.60
35491;DHT22;21605;52.068;20.806;2023-02-10T01:27:57;0.00;93.00
35491;DHT22;21605;52.068;20.806;2023-02-10T01:30:32;-0.10;92.60
35491;DHT22;21605;52.068;20.806;2023-02-10T01:32:58;-0.20;92.90
35491;DHT22;21605;52.068;20.806;2023-02-10T01:35:32;-0.20;93.10
35491;DHT22;21605;52.068;20.806;2023-02-10T01:37:58;-0.20;92.90
35491;DHT22;21605;52.068;20.806;2023-02-10T01:40:33;-0.20;92.90
35491;DHT22;21605;52.068;20.806;2023-02-10T01:42:59;-0.20;93.00
35491;DHT22;21605;52.068;20.806;2023-02-10T01:45:33;-0.20;93.00
35491;DHT22;21605;52.068;20.806;2023-02-10T01:47:59;-0.20;93.00
35491;DHT22;21605;52.068;20.806;2023-02-10T01:50:38;-0.30;93.20
35491;DHT22;21605;52.068;20.806;2023-02-10T01:53:06;-0.30;93.30
35491;DHT22;21605;52.068;20.806;2023-02-10T01:55:34;-0.30;93.50
35491;DHT22;21605;52.068;20.806;2023-02-10T01:58:06;-0.40;93.60
35491;DHT22;21605;52.068;20.806;2023-02-10T02:00:33;-0.40;93.40
35491;DHT22;21605;52.068;20.806;2023-02-10T02:03:01;-0.40;93.50
35491;DHT22;21605;52.068;20.806;2023-02-10T02:05:38;-0.40;93.60
35491;DHT22;21605;52.068;20.806;2023-02-10T02:10:57;-0.40;93.60
35491;DHT22;21605;52.068;20.806;2023-02-10T02:21:57;-0.50;93.70
35491;DHT22;21605;52.068;20.806;2023-02-10T02:33:27;-0.50;93.70
35491;DHT22;21605;52.068;20.806;2023-02-10T02:36:11;-0.50;93.70
35491;DHT22;21605;52.068;20.806;2023-02-10T02:38:38;-0.50;93.70
35491;DHT22;21605;52.068;20.806;2023-02-10T02:41:04;-0.50;93.70
35491;DHT22;21605;52.068;20.806;2023-02-10T02:43:42;-0.50;93.70
35491;DHT22;21605;52.068;20.806;2023-02-10T02:51:49;-0.60;94.00
35491;DHT22;21605;52.068;20.806;2023-02-10T02:59:59;-0.70;94.30
35491;DHT22;21605;52.068;20.806;2023-02-10T03:02:37;-0.60;94.30
35491;DHT22;21605;52.068;20.806;2023-02-10T03:05:08;-0.60;94.20
35491;DHT22;21605;52.068;20.806;2023-02-10T03:07:39;-0.60;94.10
35491;DHT22;21605;52.068;20.806;2023-02-10T03:10:05;-0.60;94.10
35491;DHT22;21605;52.068;20.806;2023-02-10T03:12:31;-0.50;93.90
35491;DHT22;21605;52.068;20.806;2023-02-10T03:14:57;-0.60;94.00
35491;DHT22;21605;52.068;20.806;2023-02-10T03:17:22;-0.60;94.10
35491;DHT22;21605;52.068;20.806;2023-02-10T03:19:48;-0.60;94.00
35491;DHT22;21605;52.068;20.806;2023-02-10T03:22:14;-0.50;93.80
35491;DHT22;21605;52.068;20.806;2023-02-10T03:24:44;-0.40;93.70
35491;DHT22;21605;52.068;20.806;2023-02-10T03:27:10;-0.40;94.00
35491;DHT22;21605;52.068;20.806;2023-02-10T03:29:41;-0.40;94.00
35491;DHT22;21605;52.068;20.806;2023-02-10T03:32:08;-0.40;93.90
35491;DHT22;21605;52.068;20.806;2023-02-10T03:34:36;-0.40;94.00
35491;DHT22;21605;52.068;20.806;2023-02-10T03:37:02;-0.30;93.90
35491;DHT22;21605;52.068;20.806;2023-02-10T03:39:40;-0.30;93.90
35491;DHT22;21605;52.068;20.806;2023-02-10T03:42:05;-0.40;94.10
35491;DHT22;21605;52.068;20.806;2023-02-10T03:44:41;-0.50;94.30
35491;DHT22;21605;52.068;20.806;2023-02-10T03:47:07;-0.50;94.40
35491;DHT22;21605;52.068;20.806;2023-02-10T03:49:41;-0.50;94.40
35491;DHT22;21605;52.068;20.806;2023-02-10T03:52:07;-0.50;94.40
35491;DHT22;21605;52.068;20.806;2023-02-10T03:54:45;0.00;94.50
35491;DHT22;21605;52.068;20.806;2023-02-10T03:57:11;-0.50;94.40
35491;DHT22;21605;52.068;20.806;2023-02-10T03:59:40;-0.50;94.30
35491;DHT22;21605;52.068;20.806;2023-02-10T04:02:05;-0.60;94.50
35491;DHT22;21605;52.068;20.806;2023-02-10T04:04:41;-0.50;94.50
35491;DHT22;21605;52.068;20.806;2023-02-10T04:07:06;-0.60;94.60
35491;DHT22;21605;52.068;20.806;2023-02-10T04:09:32;-0.60;94.60
35491;DHT22;21605;52.068;20.806;2023-02-10T04:11:58;-0.70;94.70
35491;DHT22;21605;52.068;20.806;2023-02-10T04:14:23;-0.60;94.70
35491;DHT22;21605;52.068;20.806;2023-02-10T04:16:49;-0.60;94.70
35491;DHT22;21605;52.068;20.806;2023-02-10T04:19:14;-0.70;94.60
35491;DHT22;21605;52.068;20.806;2023-02-10T04:21:43;-0.70;94.70
35491;DHT22;21605;52.068;20.806;2023-02-10T04:24:09;-0.70;94.70
35491;DHT22;21605;52.068;20.806;2023-02-10T04:26:47;-0.70;94.80
35491;DHT22;21605;52.068;20.806;2023-02-10T04:29:12;-0.70;94.70
35491;DHT22;21605;52.068;20.806;2023-02-10T04:31:43;-0.60;94.70
35491;DHT22;21605;52.068;20.806;2023-02-10T04:34:09;-0.60;94.40
35491;DHT22;21605;52.068;20.806;2023-02-10T04:36:41;-0.70;94.60
35491;DHT22;21605;52.068;20.806;2023-02-10T04:39:06;-0.70;94.60
35491;DHT22;21605;52.068;20.806;2023-02-10T04:41:41;-0.70;94.70
35491;DHT22;21605;52.068;20.806;2023-02-10T04:44:06;-0.80;95.10
35491;DHT22;21605;52.068;20.806;2023-02-10T04:46:32;-0.90;95.00
35491;DHT22;21605;52.068;20.806;2023-02-10T04:48:58;-0.90;95.00
35491;DHT22;21605;52.068;20.806;2023-02-10T04:51:23;-0.80;94.90
35491;DHT22;21605;52.068;20.806;2023-02-10T04:53:49;-0.90;95.00
35491;DHT22;21605;52.068;20.806;2023-02-10T04:56:15;-0.90;95.00
35491;DHT22;21605;52.068;20.806;2023-02-10T04:58:46;-0.80;95.00
35491;DHT22;21605;52.068;20.806;2023-02-10T05:01:12;-0.90;94.90
35491;DHT22;21605;52.068;20.806;2023-02-10T05:03:46;-0.90;95.20
35491;DHT22;21605;52.068;20.806;2023-02-10T05:06:14;-0.90;95.00
35491;DHT22;21605;52.068;20.806;2023-02-10T05:08:49;-0.90;95.00
35491;DHT22;21605;52.068;20.806;2023-02-10T05:11:15;-0.90;95.00
35491;DHT22;21605;52.068;20.806;2023-02-10T05:13:44;-0.90;95.40
35491;DHT22;21605;52.068;20.806;2023-02-10T05:16:11;-1.00;95.50
35491;DHT22;21605;52.068;20.806;2023-02-10T05:18:43;-0.90;95.60
35491;DHT22;21605;52.068;20.806;2023-02-10T05:21:10;-0.90;95.40
35491;DHT22;21605;52.068;20.806;2023-02-10T05:23:42;-0.80;95.50
35491;DHT22;21605;52.068;20.806;2023-02-10T05:26:08;-0.70;95.60
35491;DHT22;21605;52.068;20.806;2023-02-10T05:28:42;-0.80;95.60
35491;DHT22;21605;52.068;20.806;2023-02-10T05:31:08;-0.60;95.40
35491;DHT22;21605;52.068;20.806;2023-02-10T05:33:42;-0.60;95.40
35491;DHT22;21605;52.068;20.806;2023-02-10T05:36:09;-0.60;95.40
35491;DHT22;21605;52.068;20.806;2023-02-10T05:38:43;-0.50;95.20
35491;DHT22;21605;52.068;20.806;2023-02-10T05:41:29;-0.50;95.10
35491;DHT22;21605;52.068;20.806;2023-02-10T05:43:55;-0.50;95.10
35491;DHT22;21605;52.068;20.806;2023-02-10T05:46:20;-0.50;95.20
35491;DHT22;21605;52.068;20.806;2023-02-10T05:48:46;-0.50;95.40
35491;DHT22;21605;52.068;20.806;2023-02-10T05:51:12;-0.50;95.80
35491;DHT22;21605;52.068;20.806;2023-02-10T05:53:46;-0.60;96.00
35491;DHT22;21605;52.068;20.806;2023-02-10T05:56:12;-0.60;96.70
35491;DHT22;21605;52.068;20.806;2023-02-10T05:58:46;-0.60;96.10
35491;DHT22;21605;52.068;20.806;2023-02-10T06:01:12;-0.50;96.20
35491;DHT22;21605;52.068;20.806;2023-02-10T06:03:43;-0.40;96.00
35491;DHT22;21605;52.068;20.806;2023-02-10T06:06:09;-0.40;96.10
35491;DHT22;21605;52.068;20.806;2023-02-10T06:08:44;-0.40;96.10
35491;DHT22;21605;52.068;20.806;2023-02-10T06:11:09;-0.40;96.30
35491;DHT22;21605;52.068;20.806;2023-02-10T06:13:44;-0.40;96.30
35491;DHT22;21605;52.068;20.806;2023-02-10T06:16:09;-0.30;96.50
35491;DHT22;21605;52.068;20.806;2023-02-10T06:18:41;-0.40;96.70
35491;DHT22;21605;52.068;20.806;2023-02-10T06:21:08;-0.30;96.90
35491;DHT22;21605;52.068;20.806;2023-02-10T06:23:34;-0.30;96.80
35491;DHT22;21605;52.068;20.806;2023-02-10T06:26:00;-0.30;96.90
35491;DHT22;21605;52.068;20.806;2023-02-10T06:28:27;-0.20;97.00
35491;DHT22;21605;52.068;20.806;2023-02-10T06:30:53;-0.20;97.10
35491;DHT22;21605;52.068;20.806;2023-02-10T06:33:19;-0.10;97.10
35491;DHT22;21605;52.068;20.806;2023-02-10T06:35:46;-0.10;97.00
35491;DHT22;21605;52.068;20.806;2023-02-10T06:38:12;0.00;97.00
35491;DHT22;21605;52.068;20.806;2023-02-10T06:40:47;1.00;97.30
35491;DHT22;21605;52.068;20.806;2023-02-10T06:43:12;0.00;97.30
35491;DHT22;21605;52.068;20.806;2023-02-10T06:45:47;0.00;97.30
35491;DHT22;21605;52.068;20.806;2023-02-10T06:48:12;0.10;97.40
35491;DHT22;21605;52.068;20.806;2023-02-10T06:50:38;0.10;97.30
35491;DHT22;21605;52.068;20.806;2023-02-10T06:53:04;0.90;97.60
35491;DHT22;21605;52.068;20.806;2023-02-10T06:55:30;0.20;97.30
35491;DHT22;21605;52.068;20.806;2023-02-10T06:57:58;0.20;97.40
35491;DHT22;21605;52.068;20.806;2023-02-10T07:00:24;0.20;97.40
35491;DHT22;21605;52.068;20.806;2023-02-10T07:02:50;0.30;97.50
35491;DHT22;21605;52.068;20.806;2023-02-10T07:05:16;0.30;97.40
35491;DHT22;21605;52.068;20.806;2023-02-10T07:07:47;0.30;97.40
35491;DHT22;21605;52.068;20.806;2023-02-10T07:10:13;0.30;97.30
35491;DHT22;21605;52.068;20.806;2023-02-10T07:12:48;0.40;97.30
35491;DHT22;21605;52.068;20.806;2023-02-10T07:15:14;0.40;97.30
35491;DHT22;21605;52.068;20.806;2023-02-10T07:17:50;0.50;97.30
35491;DHT22;21605;52.068;20.806;2023-02-10T07:20:20;0.50;97.20
35491;DHT22;21605;52.068;20.806;2023-02-10T07:22:47;0.60;97.10
35491;DHT22;21605;52.068;20.806;2023-02-10T07:25:13;0.60;97.30
35491;DHT22;21605;52.068;20.806;2023-02-10T07:27:47;0.60;97.10
35491;DHT22;21605;52.068;20.806;2023-02-10T07:30:13;0.70;97.20
35491;DHT22;21605;52.068;20.806;2023-02-10T07:32:40;0.70;97.30
35491;DHT22;21605;52.068;20.806;2023-02-10T07:35:07;1.20;97.40
35491;DHT22;21605;52.068;20.806;2023-02-10T07:37:34;0.80;97.30
35491;DHT22;21605;52.068;20.806;2023-02-10T07:40:00;0.80;97.40
35491;DHT22;21605;52.068;20.806;2023-02-10T07:42:25;0.80;97.40
35491;DHT22;21605;52.068;20.806;2023-02-10T07:44:51;1.00;97.40
35491;DHT22;21605;52.068;20.806;2023-02-10T07:47:16;2.70;98.00
35491;DHT22;21605;52.068;20.806;2023-02-10T07:49:47;1.00;97.60
35491;DHT22;21605;52.068;20.806;2023-02-10T07:52:13;1.00;98.00
35491;DHT22;21605;52.068;20.806;2023-02-10T07:54:38;1.10;97.70
35491;DHT22;21605;52.068;20.806;2023-02-10T07:57:04;1.20;97.80
35491;DHT22;21605;52.068;20.806;2023-02-10T07:59:30;1.50;97.80
35491;DHT22;21605;52.068;20.806;2023-02-10T08:01:55;1.30;97.80
35491;DHT22;21605;52.068;20.806;2023-02-10T08:04:21;2.10;98.10
35491;DHT22;21605;52.068;20.806;2023-02-10T08:06:52;2.50;98.30
35491;DHT22;21605;52.068;20.806;2023-02-10T08:09:17;2.50;98.20
35491;DHT22;21605;52.068;20.806;2023-02-10T08:11:52;1.60;97.90
35491;DHT22;21605;52.068;20.806;2023-02-10T08:14:18;1.80;98.00
35491;DHT22;21605;52.068;20.806;2023-02-10T08:16:53;1.90;98.10
35491;DHT22;21605;52.068;20.806;2023-02-10T08:19:19;1.90;97.90
35491;DHT22;21605;52.068;20.806;2023-02-10T08:21:53;2.00;98.00
35491;DHT22;21605;52.068;20.806;2023-02-10T08:24:19;2.10;98.00
35491;DHT22;21605;52.068;20.806;2023-02-10T08:26:51;2.00;97.90
35491;DHT22;21605;52.068;20.806;2023-02-10T08:29:16;2.10;98.00
35491;DHT22;21605;52.068;20.806;2023-02-10T08:31:52;2.50;97.80
35491;DHT22;21605;52.068;20.806;2023-02-10T08:34:18;2.20;98.00
35491;DHT22;21605;52.068;20.806;2023-02-10T08:36:54;2.70;98.10
35491;DHT22;21605;52.068;20.806;2023-02-10T08:39:19;2.40;98.00
35491;DHT22;21605;52.068;20.806;2023-02-10T08:41:55;2.50;98.10
35491;DHT22;21605;52.068;20.806;2023-02-10T08:44:20;2.50;97.60
35491;DHT22;21605;52.068;20.806;2023-02-10T08:46:55;2.60;98.10
35491;DHT22;21605;52.068;20.806;2023-02-10T08:49:21;2.70;98.20
35491;DHT22;21605;52.068;20.806;2023-02-10T08:51:55;2.80;98.20
35491;DHT22;21605;52.068;20.806;2023-02-10T08:54:21;2.80;98.00
35491;DHT22;21605;52.068;20.806;2023-02-10T08:56:47;2.80;97.70
35491;DHT22;21605;52.068;20.806;2023-02-10T08:59:13;2.80;97.70
35491;DHT22;21605;52.068;20.806;2023-02-10T09:01:39;2.80;97.90
35491;DHT22;21605;52.068;20.806;2023-02-10T09:04:05;2.90;98.00
35491;DHT22;21605;52.068;20.806;2023-02-10T09:06:33;2.80;97.80
35491;DHT22;21605;52.068;20.806;2023-02-10T09:09:05;2.80;97.90
35491;DHT22;21605;52.068;20.806;2023-02-10T09:11:31;2.90;98.20
35491;DHT22;21605;52.068;20.806;2023-02-10T09:13:56;2.90;98.20
35491;DHT22;21605;52.068;20.806;2023-02-10T09:16:23;2.90;98.10
35491;DHT22;21605;52.068;20.806;2023-02-10T09:18:49;2.90;98.20
35491;DHT22;21605;52.068;20.806;2023-02-10T09:21:14;2.90;98.20
35491;DHT22;21605;52.068;20.806;2023-02-10T09:23:40;3.00;98.30
35491;DHT22;21605;52.068;20.806;2023-02-10T09:26:06;2.90;98.00
35491;DHT22;21605;52.068;20.806;2023-02-10T09:28:31;3.00;98.20
35491;DHT22;21605;52.068;20.806;2023-02-10T09:30:57;2.90;98.60
35491;DHT22;21605;52.068;20.806;2023-02-10T09:33:23;3.00;98.20
35491;DHT22;21605;52.068;20.806;2023-02-10T09:35:48;3.00;98.20
35491;DHT22;21605;52.068;20.806;2023-02-10T09:38:14;3.00;98.30
35491;DHT22;21605;52.068;20.806;2023-02-10T09:41:09;3.00;98.20
35491;DHT22;21605;52.068;20.806;2023-02-10T09:54:55;2.90;98.60
35491;DHT22;21605;52.068;20.806;2023-02-10T09:57:39;3.00;98.60
35491;DHT22;21605;52.068;20.806;2023-02-10T10:00:23;3.00;98.60
35491;DHT22;21605;52.068;20.806;2023-02-10T10:02:53;3.00;98.80
35491;DHT22;21605;52.068;20.806;2023-02-10T10:11:41;3.00;98.90
35491;DHT22;21605;52.068;20.806;2023-02-10T10:14:29;3.10;99.00
35491;DHT22;21605;52.068;20.806;2023-02-10T10:20:08;3.10;99.00
35491;DHT22;21605;52.068;20.806;2023-02-10T10:35:55;3.20;99.20
35491;DHT22;21605;52.068;20.806;2023-02-10T10:38:33;3.20;99.20
35491;DHT22;21605;52.068;20.806;2023-02-10T10:41:23;3.30;99.40
35491;DHT22;21605;52.068;20.806;2023-02-10T10:43:55;3.30;99.50
35491;DHT22;21605;52.068;20.806;2023-02-10T10:48:57;3.30;99.60
35491;DHT22;21605;52.068;20.806;2023-02-10T10:51:23;3.40;99.70
35491;DHT22;21605;52.068;20.806;2023-02-10T10:53:58;3.40;99.80
35491;DHT22;21605;52.068;20.806;2023-02-10T10:56:34;3.40;99.60
35491;DHT22;21605;52.068;20.806;2023-02-10T10:59:20;3.50;99.70
35491;DHT22;21605;52.068;20.806;2023-02-10T11:01:57;3.50;99.70
35491;DHT22;21605;52.068;20.806;2023-02-10T11:04:25;3.40;99.70
35491;DHT22;21605;52.068;20.806;2023-02-10T11:06:55;3.50;99.80
35491;DHT22;21605;52.068;20.806;2023-02-10T11:09:40;3.30;99.70
35491;DHT22;21605;52.068;20.806;2023-02-10T11:12:17;3.40;99.80
35491;DHT22;21605;52.068;20.806;2023-02-10T11:14:46;3.30;99.90
35491;DHT22;21605;52.068;20.806;2023-02-10T11:20:16;3.40;99.90
35491;DHT22;21605;52.068;20.806;2023-02-10T11:22:54;3.50;99.90
35491;DHT22;21605;52.068;20.806;2023-02-10T11:27:56;3.50;99.90
35491;DHT22;21605;52.068;20.806;2023-02-10T11:30:30;3.60;99.90
35491;DHT22;21605;52.068;20.806;2023-02-10T11:33:00;3.60;99.90
35491;DHT22;21605;52.068;20.806;2023-02-10T11:35:27;3.50;99.90
35491;DHT22;21605;52.068;20.806;2023-02-10T11:38:05;3.60;99.90
35491;DHT22;21605;52.068;20.806;2023-02-10T11:41:03;3.60;99.90
35491;DHT22;21605;52.068;20.806;2023-02-10T11:46:05;3.60;99.90
35491;DHT22;21605;52.068;20.806;2023-02-10T11:48:31;3.70;99.90
35491;DHT22;21605;52.068;20.806;2023-02-10T11:51:14;4.10;99.90
35491;DHT22;21605;52.068;20.806;2023-02-10T11:53:42;3.70;99.90
35491;DHT22;21605;52.068;20.806;2023-02-10T11:56:50;3.80;99.90
35491;DHT22;21605;52.068;20.806;2023-02-10T11:59:52;3.80;99.90
35491;DHT22;21605;52.068;20.806;2023-02-10T12:10:45;4.00;99.90
35491;DHT22;21605;52.068;20.806;2023-02-10T12:16:24;3.80;99.90
35491;DHT22;21605;52.068;20.806;2023-02-10T12:19:08;3.80;99.90
35491;DHT22;21605;52.068;20.806;2023-02-10T12:27:18;3.80;99.90
35491;DHT22;21605;52.068;20.806;2023-02-10T12:38:24;3.70;99.90
35491;DHT22;21605;52.068;20.806;2023-02-10T12:44:13;3.70;99.90
35491;DHT22;21605;52.068;20.806;2023-02-10T12:49:51;3.70;99.90
35491;DHT22;21605;52.068;20.806;2023-02-10T12:55:48;3.70;99.90
35491;DHT22;21605;52.068;20.806;2023-02-10T12:58:08;3.70;99.90
35491;DHT22;21605;52.068;20.806;2023-02-10T13:00:40;4.80;99.90
35491;DHT22;21605;52.068;20.806;2023-02-10T13:03:15;3.70;99.90
35491;DHT22;21605;52.068;20.806;2023-02-10T13:05:49;3.70;99.90
35491;DHT22;21605;52.068;20.806;2023-02-10T13:08:24;3.70;99.90
35491;DHT22;21605;52.068;20.806;2023-02-10T13:11:34;3.80;99.90
35491;DHT22;21605;52.068;20.806;2023-02-10T13:14:19;3.70;99.90
35491;DHT22;21605;52.068;20.806;2023-02-10T13:16:54;3.70;99.90
35491;DHT22;21605;52.068;20.806;2023-02-10T13:19:31;3.70;99.90
35491;DHT22;21605;52.068;20.806;2023-02-10T13:22:09;3.70;99.90
35491;DHT22;21605;52.068;20.806;2023-02-10T13:24:42;3.70;99.90
35491;DHT22;21605;52.068;20.806;2023-02-10T13:30:53;3.70;99.90
35491;DHT22;21605;52.068;20.806;2023-02-10T13:36:06;3.70;99.90
35491;DHT22;21605;52.068;20.806;2023-02-10T13:38:34;3.70;99.90
35491;DHT22;21605;52.068;20.806;2023-02-10T13:41:00;3.70;99.90
35491;DHT22;21605;52.068;20.806;2023-02-10T13:43:46;3.70;99.90
35491;DHT22;21605;52.068;20.806;2023-02-10T13:46:27;3.70;99.90
35491;DHT22;21605;52.068;20.806;2023-02-10T13:48:54;3.80;99.90
35491;DHT22;21605;52.068;20.806;2023-02-10T13:51:37;3.50;99.90
35491;DHT22;21605;52.068;20.806;2023-02-10T13:54:06;3.60;99.90
35491;DHT22;21605;52.068;20.806;2023-02-10T13:56:33;3.60;99.90
35491;DHT22;21605;52.068;20.806;2023-02-10T14:01:49;3.70;99.90
35491;DHT22;21605;52.068;20.806;2023-02-10T14:06:46;3.50;99.90
35491;DHT22;21605;52.068;20.806;2023-02-10T14:09:20;3.50;99.90
35491;DHT22;21605;52.068;20.806;2023-02-10T14:11:47;3.40;99.90
35491;DHT22;21605;52.068;20.806;2023-02-10T14:14:34;3.50;99.90
35491;DHT22;21605;52.068;20.806;2023-02-10T14:19:40;3.40;99.90
35491;DHT22;21605;52.068;20.806;2023-02-10T14:24:49;3.30;99.90
35491;DHT22;21605;52.068;20.806;2023-02-10T14:27:17;3.40;99.90
35491;DHT22;21605;52.068;20.806;2023-02-10T14:29:51;3.40;99.90
35491;DHT22;21605;52.068;20.806;2023-02-10T14:32:17;3.20;99.90
35491;DHT22;21605;52.068;20.806;2023-02-10T14:34:57;3.20;99.90
35491;DHT22;21605;52.068;20.806;2023-02-10T14:37:27;3.30;99.90
35491;DHT22;21605;52.068;20.806;2023-02-10T14:40:00;3.20;99.90
35491;DHT22;21605;52.068;20.806;2023-02-10T14:42:28;3.20;99.90
35491;DHT22;21605;52.068;20.806;2023-02-10T14:44:57;3.20;99.90
35491;DHT22;21605;52.068;20.806;2023-02-10T14:47:36;3.20;99.90
35491;DHT22;21605;52.068;20.806;2023-02-10T14:50:25;3.20;99.90
35491;DHT22;21605;52.068;20.806;2023-02-10T14:52:51;3.20;99.90
35491;DHT22;21605;52.068;20.806;2023-02-10T14:55:33;3.20;99.90
35491;DHT22;21605;52.068;20.806;2023-02-10T14:58:12;3.20;99.90
35491;DHT22;21605;52.068;20.806;2023-02-10T15:00:40;3.10;99.90
35491;DHT22;21605;52.068;20.806;2023-02-10T15:03:11;3.10;99.90
35491;DHT22;21605;52.068;20.806;2023-02-10T15:05:48;3.00;99.90
35491;DHT22;21605;52.068;20.806;2023-02-10T15:08:25;3.00;99.90
35491;DHT22;21605;52.068;20.806;2023-02-10T15:10:53;3.00;99.90
35491;DHT22;21605;52.068;20.806;2023-02-10T15:13:30;3.00;99.90
35491;DHT22;21605;52.068;20.806;2023-02-10T15:15:58;3.40;99.90
35491;DHT22;21605;52.068;20.806;2023-02-10T15:18:30;3.00;99.90
35491;DHT22;21605;52.068;20.806;2023-02-10T15:21:34;3.00;99.90
35491;DHT22;21605;52.068;20.806;2023-02-10T15:24:32;3.00;99.90
35491;DHT22;21605;52.068;20.806;2023-02-10T15:27:22;2.90;99.90
35491;DHT22;21605;52.068;20.806;2023-02-10T15:29:48;2.90;99.90
35491;DHT22;21605;52.068;20.806;2023-02-10T15:32:20;3.00;99.90
35491;DHT22;21605;52.068;20.806;2023-02-10T15:34:46;2.90;99.90
35491;DHT22;21605;52.068;20.806;2023-02-10T15:37:21;2.90;99.90
35491;DHT22;21605;52.068;20.806;2023-02-10T15:40:00;2.90;99.90
35491;DHT22;21605;52.068;20.806;2023-02-10T15:42:41;2.80;99.90
35491;DHT22;21605;52.068;20.806;2023-02-10T15:45:16;2.90;99.90
35491;DHT22;21605;52.068;20.806;2023-02-10T15:47:47;2.90;99.90
35491;DHT22;21605;52.068;20.806;2023-02-10T15:50:14;2.80;99.90
35491;DHT22;21605;52.068;20.806;2023-02-10T15:52:42;2.80;99.90
35491;DHT22;21605;52.068;20.806;2023-02-10T15:55:35;2.80;99.90
35491;DHT22;21605;52.068;20.806;2023-02-10T15:58:11;2.80;99.90
35491;DHT22;21605;52.068;20.806;2023-02-10T16:00:40;2.70;99.90
35491;DHT22;21605;52.068;20.806;2023-02-10T16:03:10;2.80;99.90
35491;DHT22;21605;52.068;20.806;2023-02-10T16:05:37;2.70;99.90
35491;DHT22;21605;52.068;20.806;2023-02-10T16:08:20;2.70;99.90
35491;DHT22;21605;52.068;20.806;2023-02-10T16:10:46;2.80;99.90
35491;DHT22;21605;52.068;20.806;2023-02-10T16:13:14;2.70;99.90
35491;DHT22;21605;52.068;20.806;2023-02-10T16:15:40;2.70;99.90
35491;DHT22;21605;52.068;20.806;2023-02-10T16:18:13;2.70;99.90
35491;DHT22;21605;52.068;20.806;2023-02-10T16:20:39;2.80;99.90
35491;DHT22;21605;52.068;20.806;2023-02-10T16:23:16;2.70;99.90
35491;DHT22;21605;52.068;20.806;2023-02-10T16:25:42;2.60;99.90
35491;DHT22;21605;52.068;20.806;2023-02-10T16:28:17;2.70;99.90
35491;DHT22;21605;52.068;20.806;2023-02-10T16:30:42;2.70;99.90
35491;DHT22;21605;52.068;20.806;2023-02-10T16:33:12;2.70;99.90
35491;DHT22;21605;52.068;20.806;2023-02-10T16:35:38;2.60;99.90
35491;DHT22;21605;52.068;20.806;2023-02-10T16:38:13;2.70;99.90
35491;DHT22;21605;52.068;20.806;2023-02-10T16:40:39;2.60;99.90
35491;DHT22;21605;52.068;20.806;2023-02-10T16:43:14;2.60;99.90
35491;DHT22;21605;52.068;20.806;2023-02-10T16:45:39;2.70;99.90
35491;DHT22;21605;52.068;20.806;2023-02-10T16:48:14;2.60;99.90
35491;DHT22;21605;52.068;20.806;2023-02-10T16:50:41;2.70;99.90
35491;DHT22;21605;52.068;20.806;2023-02-10T16:53:13;2.60;99.90
35491;DHT22;21605;52.068;20.806;2023-02-10T16:55:40;2.60;99.90
35491;DHT22;21605;52.068;20.806;2023-02-10T16:58:18;2.60;99.90
35491;DHT22;21605;52.068;20.806;2023-02-10T17:00:44;2.70;99.90
35491;DHT22;21605;52.068;20.806;2023-02-10T17:03:13;2.70;99.90
35491;DHT22;21605;52.068;20.806;2023-02-10T17:05:39;2.60;99.90
35491;DHT22;21605;52.068;20.806;2023-02-10T17:08:14;2.60;99.90
35491;DHT22;21605;52.068;20.806;2023-02-10T17:10:39;2.70;99.90
35491;DHT22;21605;52.068;20.806;2023-02-10T17:13:14;2.70;99.90
35491;DHT22;21605;52.068;20.806;2023-02-10T17:15:39;2.60;99.90
35491;DHT22;21605;52.068;20.806;2023-02-10T17:18:14;2.70;99.90
35491;DHT22;21605;52.068;20.806;2023-02-10T17:20:40;2.60;99.90
35491;DHT22;21605;52.068;20.806;2023-02-10T17:23:15;2.70;99.90
35491;DHT22;21605;52.068;20.806;2023-02-10T17:25:41;2.70;99.90
35491;DHT22;21605;52.068;20.806;2023-02-10T17:28:09;2.70;99.90
35491;DHT22;21605;52.068;20.806;2023-02-10T17:30:36;2.60;99.90
35491;DHT22;21605;52.068;20.806;2023-02-10T17:33:04;2.70;99.90
35491;DHT22;21605;52.068;20.806;2023-02-10T17:35:30;2.70;99.90
35491;DHT22;21605;52.068;20.806;2023-02-10T17:37:56;4.90;99.90
35491;DHT22;21605;52.068;20.806;2023-02-10T17:40:51;2.70;99.90
35491;DHT22;21605;52.068;20.806;2023-02-10T17:43:16;2.70;99.90
35491;DHT22;21605;52.068;20.806;2023-02-10T17:45:42;2.70;99.90
35491;DHT22;21605;52.068;20.806;2023-02-10T17:48:07;2.70;99.90
35491;DHT22;21605;52.068;20.806;2023-02-10T17:50:36;2.60;99.90
35491;DHT22;21605;52.068;20.806;2023-02-10T17:53:02;2.60;99.90
35491;DHT22;21605;52.068;20.806;2023-02-10T17:55:28;2.60;99.90
35491;DHT22;21605;52.068;20.806;2023-02-10T17:57:53;2.60;99.90